LFBD/BOD METAR and TAF weather

Enter ICAO airport designator
Station Type Date Time Source
LFBD METAR 2022/06/27 17:00 UTC NOAA

LFBD 271700Z AUTO 31010KT CAVOK 22/08 Q1022 NOSIG


Station Type Date Time Source
LFBD Decoded METAR 2022/06/27 17:00 UTC NOAA

Bordeaux / Merignac, France (LFBD) 44-50N 000-42W 61M
Jun 27, 2022 - 01:00 PM EDT / 2022.06.27 1700 UTC
Wind: from the NW (310 degrees) at 12 MPH (10 KT):0
Visibility: greater than 7 mile(s):0
Temperature: 71 F (22 C)
Dew Point: 46 F (8 C)
Relative Humidity: 40%
Pressure (altimeter): 30.18 in. Hg (1022 hPa)
ob: LFBD 271700Z AUTO 31010KT CAVOK 22/08 Q1022 NOSIG
cycle: 17

Station Type Date Time Source
LFBD TAF 2022/06/27 18:21 UTC NOAA

TAF TAF LFBD 271700Z 2718/2824 33010KT CAVOK TX25/2815Z TN11/2805Z
BECMG 2800/2802 VRB03KT PROB40
TEMPO 2803/2806 3000 MIFG
BECMG 2815/2817 34010KT

Example: see airport list